
<gpx xmlns="http://www.topografix.com/GPX/1/1" xmlns:gpxx="http://www.garmin.com/xmlschemas/GpxExtensions/v3" xmlns:xsi="http://www.w3.org/2001/XMLSchema-instance" version="1.1" creator="Adze - http://kobotsw.com/apps/adze" xsi:schemaLocation="http://www.topografix.com/GPX/1/1 http://www.topografix.com/GPX/1/1/gpx.xsd http://www.garmin.com/xmlschemas/GpxExtensions/v3 http://www.garmin.com/xmlschemas/GpxExtensionsv3.xsd">
    <metadata>
        <name>Untitled Document</name>
        <link href="http://www.garmin.com"></link>
        <time>2018-02-26T04:51:16.052Z</time>
    </metadata>
    <wpt lon="99.679750" lat="13.185569">
        <ele>33.000000</ele>
        <name>Thanatthichaburi Resort</name>
        <cmt>23-NOV-13 10:33:10</cmt>
        <desc>23-NOV-13 10:33:10</desc>
        <sym>Lodging</sym>
        <extensions>
            <gpxx:WaypointExtension xmlns:gpxx="http://www.garmin.com/xmlschemas/GpxExtensions/v3">
                <gpxx:DisplayMode>SymbolOnly</gpxx:DisplayMode>
            </gpxx:WaypointExtension>
        </extensions>
    </wpt>
    <wpt lon="99.606972" lat="13.190788">
        <ele>154.000000</ele>
        <time>2015-02-21T08:10:28Z</time>
        <name>Water Sat</name>
        <sym>Drinking Water</sym>
        <extensions>
            <gpxx:WaypointExtension xmlns:gpxx="http://www.garmin.com/xmlschemas/GpxExtensions/v3">
                <gpxx:DisplayMode>SymbolOnly</gpxx:DisplayMode>
            </gpxx:WaypointExtension>
        </extensions>
    </wpt>
    <trk>
        <name>Saturday</name>
        <extensions>
            <gpxx:TrackExtension xmlns:gpxx="http://www.garmin.com/xmlschemas/GpxExtensions/v3">
                <gpxx:DisplayColor>Red</gpxx:DisplayColor>
            </gpxx:TrackExtension>
        </extensions>
        <trkseg>
            <trkpt lon="99.679446" lat="13.184867">
                <ele>117.900000</ele>
                <time>2015-02-21T06:09:18Z</time>
            </trkpt>
            <trkpt lon="99.679242" lat="13.185060">
                <ele>116.460000</ele>
                <time>2015-02-21T06:09:25Z</time>
            </trkpt>
            <trkpt lon="99.679271" lat="13.185228">
                <ele>115.500000</ele>
                <time>2015-02-21T06:09:28Z</time>
            </trkpt>
            <trkpt lon="99.679317" lat="13.185388">
                <ele>115.500000</ele>
                <time>2015-02-21T06:09:31Z</time>
            </trkpt>
            <trkpt lon="99.679230" lat="13.185502">
                <ele>115.010000</ele>
                <time>2015-02-21T06:09:33Z</time>
            </trkpt>
            <trkpt lon="99.679163" lat="13.185551">
                <ele>114.050000</ele>
                <time>2015-02-21T06:09:34Z</time>
            </trkpt>
            <trkpt lon="99.679011" lat="13.185648">
                <ele>112.610000</ele>
                <time>2015-02-21T06:09:36Z</time>
            </trkpt>
            <trkpt lon="99.678865" lat="13.185778">
                <ele>110.210000</ele>
                <time>2015-02-21T06:09:38Z</time>
            </trkpt>
            <trkpt lon="99.678555" lat="13.186214">
                <ele>103.960000</ele>
                <time>2015-02-21T06:09:43Z</time>
            </trkpt>
            <trkpt lon="99.678372" lat="13.188081">
                <ele>109.250000</ele>
                <time>2015-02-21T06:10:16Z</time>
            </trkpt>
            <trkpt lon="99.678649" lat="13.190216">
                <ele>93.390000</ele>
                <time>2015-02-21T06:10:44Z</time>
            </trkpt>
            <trkpt lon="99.678483" lat="13.190343">
                <ele>92.420000</ele>
                <time>2015-02-21T06:10:47Z</time>
            </trkpt>
            <trkpt lon="99.676992" lat="13.190462">
                <ele>91.460000</ele>
                <time>2015-02-21T06:11:08Z</time>
            </trkpt>
            <trkpt lon="99.676576" lat="13.189733">
                <ele>94.830000</ele>
                <time>2015-02-21T06:11:23Z</time>
            </trkpt>
            <trkpt lon="99.676407" lat="13.189066">
                <ele>103.480000</ele>
                <time>2015-02-21T06:11:44Z</time>
            </trkpt>
            <trkpt lon="99.676341" lat="13.188656">
                <ele>105.400000</ele>
                <time>2015-02-21T06:11:57Z</time>
            </trkpt>
            <trkpt lon="99.676276" lat="13.188243">
                <ele>103.960000</ele>
                <time>2015-02-21T06:12:05Z</time>
            </trkpt>
            <trkpt lon="99.676077" lat="13.187978">
                <ele>103.000000</ele>
                <time>2015-02-21T06:12:14Z</time>
            </trkpt>
            <trkpt lon="99.676258" lat="13.188174">
                <ele>103.960000</ele>
                <time>2015-02-21T06:12:28Z</time>
            </trkpt>
            <trkpt lon="99.676365" lat="13.188901">
                <ele>108.290000</ele>
                <time>2015-02-21T06:12:56Z</time>
            </trkpt>
            <trkpt lon="99.676581" lat="13.189777">
                <ele>99.630000</ele>
                <time>2015-02-21T06:13:23Z</time>
            </trkpt>
            <trkpt lon="99.676019" lat="13.189785">
                <ele>98.190000</ele>
                <time>2015-02-21T06:13:42Z</time>
            </trkpt>
            <trkpt lon="99.675909" lat="13.189748">
                <ele>97.710000</ele>
                <time>2015-02-21T06:13:44Z</time>
            </trkpt>
            <trkpt lon="99.675815" lat="13.189663">
                <ele>97.230000</ele>
                <time>2015-02-21T06:13:46Z</time>
            </trkpt>
            <trkpt lon="99.675752" lat="13.189545">
                <ele>96.270000</ele>
                <time>2015-02-21T06:13:48Z</time>
            </trkpt>
            <trkpt lon="99.675723" lat="13.189405">
                <ele>95.790000</ele>
                <time>2015-02-21T06:13:50Z</time>
            </trkpt>
            <trkpt lon="99.675723" lat="13.188956">
                <ele>95.310000</ele>
                <time>2015-02-21T06:13:56Z</time>
            </trkpt>
            <trkpt lon="99.675459" lat="13.188472">
                <ele>96.750000</ele>
                <time>2015-02-21T06:14:04Z</time>
            </trkpt>
            <trkpt lon="99.675796" lat="13.187507">
                <ele>98.190000</ele>
                <time>2015-02-21T06:14:21Z</time>
            </trkpt>
            <trkpt lon="99.675829" lat="13.187467">
                <ele>98.190000</ele>
                <time>2015-02-21T06:14:22Z</time>
            </trkpt>
            <trkpt lon="99.676203" lat="13.187089">
                <ele>93.870000</ele>
                <time>2015-02-21T06:14:31Z</time>
            </trkpt>
            <trkpt lon="99.676276" lat="13.186951">
                <ele>91.940000</ele>
                <time>2015-02-21T06:14:33Z</time>
            </trkpt>
            <trkpt lon="99.676297" lat="13.183946">
                <ele>89.060000</ele>
                <time>2015-02-21T06:15:20Z</time>
            </trkpt>
            <trkpt lon="99.677636" lat="13.182975">
                <ele>87.620000</ele>
                <time>2015-02-21T06:15:48Z</time>
            </trkpt>
            <trkpt lon="99.677893" lat="13.182731">
                <ele>86.660000</ele>
                <time>2015-02-21T06:15:53Z</time>
            </trkpt>
            <trkpt lon="99.678016" lat="13.182335">
                <ele>86.180000</ele>
                <time>2015-02-21T06:15:59Z</time>
            </trkpt>
            <trkpt lon="99.677939" lat="13.181331">
                <ele>88.580000</ele>
                <time>2015-02-21T06:16:17Z</time>
            </trkpt>
            <trkpt lon="99.677792" lat="13.180439">
                <ele>87.620000</ele>
                <time>2015-02-21T06:16:34Z</time>
            </trkpt>
            <trkpt lon="99.677880" lat="13.179879">
                <ele>86.180000</ele>
                <time>2015-02-21T06:16:47Z</time>
            </trkpt>
            <trkpt lon="99.678193" lat="13.179496">
                <ele>85.210000</ele>
                <time>2015-02-21T06:16:59Z</time>
            </trkpt>
            <trkpt lon="99.678015" lat="13.178804">
                <ele>89.540000</ele>
                <time>2015-02-21T06:20:04Z</time>
            </trkpt>
            <trkpt lon="99.678054" lat="13.178805">
                <ele>89.540000</ele>
                <time>2015-02-21T06:20:06Z</time>
            </trkpt>
            <trkpt lon="99.678555" lat="13.178791">
                <ele>88.580000</ele>
                <time>2015-02-21T06:20:22Z</time>
            </trkpt>
            <trkpt lon="99.678656" lat="13.178633">
                <ele>88.580000</ele>
                <time>2015-02-21T06:20:36Z</time>
            </trkpt>
            <trkpt lon="99.678649" lat="13.178626">
                <ele>88.100000</ele>
                <time>2015-02-21T06:20:52Z</time>
            </trkpt>
            <trkpt lon="99.678481" lat="13.178812">
                <ele>89.540000</ele>
                <time>2015-02-21T06:21:12Z</time>
            </trkpt>
            <trkpt lon="99.677891" lat="13.178762">
                <ele>88.580000</ele>
                <time>2015-02-21T06:22:17Z</time>
            </trkpt>
            <trkpt lon="99.677670" lat="13.179092">
                <ele>89.540000</ele>
                <time>2015-02-21T06:22:37Z</time>
            </trkpt>
            <trkpt lon="99.677385" lat="13.179427">
                <ele>89.060000</ele>
                <time>2015-02-21T06:22:51Z</time>
            </trkpt>
            <trkpt lon="99.677003" lat="13.179856">
                <ele>87.140000</ele>
                <time>2015-02-21T06:23:13Z</time>
            </trkpt>
            <trkpt lon="99.676970" lat="13.180442">
                <ele>87.620000</ele>
                <time>2015-02-21T06:23:27Z</time>
            </trkpt>
            <trkpt lon="99.676972" lat="13.180763">
                <ele>88.100000</ele>
                <time>2015-02-21T06:23:34Z</time>
            </trkpt>
            <trkpt lon="99.676946" lat="13.181047">
                <ele>88.580000</ele>
                <time>2015-02-21T06:23:40Z</time>
            </trkpt>
            <trkpt lon="99.676636" lat="13.181215">
                <ele>87.620000</ele>
                <time>2015-02-21T06:23:47Z</time>
            </trkpt>
            <trkpt lon="99.675522" lat="13.181098">
                <ele>87.620000</ele>
                <time>2015-02-21T06:24:18Z</time>
            </trkpt>
            <trkpt lon="99.676093" lat="13.181156">
                <ele>86.180000</ele>
                <time>2015-02-21T06:25:16Z</time>
            </trkpt>
            <trkpt lon="99.676147" lat="13.181729">
                <ele>86.660000</ele>
                <time>2015-02-21T06:26:02Z</time>
            </trkpt>
            <trkpt lon="99.676149" lat="13.182700">
                <ele>89.060000</ele>
                <time>2015-02-21T06:26:29Z</time>
            </trkpt>
            <trkpt lon="99.674899" lat="13.182807">
                <ele>92.420000</ele>
                <time>2015-02-21T06:27:08Z</time>
            </trkpt>
            <trkpt lon="99.674698" lat="13.182783">
                <ele>92.420000</ele>
                <time>2015-02-21T06:27:15Z</time>
            </trkpt>
            <trkpt lon="99.674802" lat="13.182256">
                <ele>93.390000</ele>
                <time>2015-02-21T06:27:33Z</time>
            </trkpt>
            <trkpt lon="99.674883" lat="13.181153">
                <ele>92.420000</ele>
                <time>2015-02-21T06:28:00Z</time>
            </trkpt>
            <trkpt lon="99.674476" lat="13.180454">
                <ele>90.980000</ele>
                <time>2015-02-21T06:28:19Z</time>
            </trkpt>
            <trkpt lon="99.674363" lat="13.180260">
                <ele>90.980000</ele>
                <time>2015-02-21T06:28:26Z</time>
            </trkpt>
            <trkpt lon="99.673315" lat="13.181263">
                <ele>92.420000</ele>
                <time>2015-02-21T06:29:02Z</time>
            </trkpt>
            <trkpt lon="99.672145" lat="13.181002">
                <ele>90.500000</ele>
                <time>2015-02-21T06:29:25Z</time>
            </trkpt>
            <trkpt lon="99.670529" lat="13.180550">
                <ele>89.540000</ele>
                <time>2015-02-21T06:29:55Z</time>
            </trkpt>
            <trkpt lon="99.670686" lat="13.179748">
                <ele>90.980000</ele>
                <time>2015-02-21T06:30:14Z</time>
            </trkpt>
            <trkpt lon="99.670712" lat="13.179674">
                <ele>90.980000</ele>
                <time>2015-02-21T06:30:17Z</time>
            </trkpt>
            <trkpt lon="99.670428" lat="13.180874">
                <ele>94.350000</ele>
                <time>2015-02-21T06:31:12Z</time>
            </trkpt>
            <trkpt lon="99.669961" lat="13.181660">
                <ele>91.940000</ele>
                <time>2015-02-21T06:31:37Z</time>
            </trkpt>
            <trkpt lon="99.670537" lat="13.182227">
                <ele>91.940000</ele>
                <time>2015-02-21T06:32:52Z</time>
            </trkpt>
            <trkpt lon="99.670679" lat="13.182381">
                <ele>91.940000</ele>
                <time>2015-02-21T06:33:04Z</time>
            </trkpt>
            <trkpt lon="99.670428" lat="13.182162">
                <ele>91.940000</ele>
                <time>2015-02-21T06:35:20Z</time>
            </trkpt>
            <trkpt lon="99.670082" lat="13.181992">
                <ele>90.500000</ele>
                <time>2015-02-21T06:36:00Z</time>
            </trkpt>
            <trkpt lon="99.669743" lat="13.182222">
                <ele>90.980000</ele>
                <time>2015-02-21T06:36:33Z</time>
            </trkpt>
            <trkpt lon="99.668284" lat="13.182554">
                <ele>92.900000</ele>
                <time>2015-02-21T06:38:23Z</time>
            </trkpt>
            <trkpt lon="99.668169" lat="13.182722">
                <ele>96.750000</ele>
                <time>2015-02-21T06:38:41Z</time>
            </trkpt>
            <trkpt lon="99.668187" lat="13.182994">
                <ele>97.230000</ele>
                <time>2015-02-21T06:38:53Z</time>
            </trkpt>
            <trkpt lon="99.668215" lat="13.183576">
                <ele>99.150000</ele>
                <time>2015-02-21T06:39:15Z</time>
            </trkpt>
            <trkpt lon="99.667808" lat="13.183679">
                <ele>96.750000</ele>
                <time>2015-02-21T06:39:30Z</time>
            </trkpt>
            <trkpt lon="99.667766" lat="13.183010">
                <ele>96.750000</ele>
                <time>2015-02-21T06:39:51Z</time>
            </trkpt>
            <trkpt lon="99.667872" lat="13.181982">
                <ele>97.710000</ele>
                <time>2015-02-21T06:40:21Z</time>
            </trkpt>
            <trkpt lon="99.667872" lat="13.181957">
                <ele>97.710000</ele>
                <time>2015-02-21T06:40:22Z</time>
            </trkpt>
            <trkpt lon="99.666845" lat="13.181323">
                <ele>99.630000</ele>
                <time>2015-02-21T06:41:01Z</time>
            </trkpt>
            <trkpt lon="99.665764" lat="13.182369">
                <ele>105.880000</ele>
                <time>2015-02-21T06:42:03Z</time>
            </trkpt>
            <trkpt lon="99.665625" lat="13.182497">
                <ele>106.840000</ele>
                <time>2015-02-21T06:42:14Z</time>
            </trkpt>
            <trkpt lon="99.665514" lat="13.182554">
                <ele>106.360000</ele>
                <time>2015-02-21T06:42:22Z</time>
            </trkpt>
            <trkpt lon="99.665239" lat="13.182911">
                <ele>104.440000</ele>
                <time>2015-02-21T06:42:44Z</time>
            </trkpt>
            <trkpt lon="99.665053" lat="13.182949">
                <ele>104.920000</ele>
                <time>2015-02-21T06:42:54Z</time>
            </trkpt>
            <trkpt lon="99.664916" lat="13.182658">
                <ele>109.250000</ele>
                <time>2015-02-21T06:43:11Z</time>
            </trkpt>
            <trkpt lon="99.664409" lat="13.182303">
                <ele>113.090000</ele>
                <time>2015-02-21T06:43:38Z</time>
            </trkpt>
            <trkpt lon="99.664269" lat="13.181963">
                <ele>117.420000</ele>
                <time>2015-02-21T06:43:56Z</time>
            </trkpt>
            <trkpt lon="99.664229" lat="13.181755">
                <ele>120.300000</ele>
                <time>2015-02-21T06:44:08Z</time>
            </trkpt>
            <trkpt lon="99.663606" lat="13.180499">
                <ele>131.840000</ele>
                <time>2015-02-21T06:45:22Z</time>
            </trkpt>
            <trkpt lon="99.662936" lat="13.181162">
                <ele>132.800000</ele>
                <time>2015-02-21T06:45:54Z</time>
            </trkpt>
            <trkpt lon="99.662156" lat="13.182234">
                <ele>132.800000</ele>
                <time>2015-02-21T06:46:24Z</time>
            </trkpt>
            <trkpt lon="99.661472" lat="13.183496">
                <ele>128.950000</ele>
                <time>2015-02-21T06:46:52Z</time>
            </trkpt>
            <trkpt lon="99.660534" lat="13.184487">
                <ele>131.360000</ele>
                <time>2015-02-21T06:47:22Z</time>
            </trkpt>
            <trkpt lon="99.659476" lat="13.185733">
                <ele>125.590000</ele>
                <time>2015-02-21T06:47:51Z</time>
            </trkpt>
            <trkpt lon="99.658801" lat="13.186588">
                <ele>116.940000</ele>
                <time>2015-02-21T06:48:04Z</time>
            </trkpt>
            <trkpt lon="99.658457" lat="13.187639">
                <ele>107.810000</ele>
                <time>2015-02-21T06:48:15Z</time>
            </trkpt>
            <trkpt lon="99.658302" lat="13.187681">
                <ele>107.320000</ele>
                <time>2015-02-21T06:48:17Z</time>
            </trkpt>
            <trkpt lon="99.656060" lat="13.187713">
                <ele>109.730000</ele>
                <time>2015-02-21T06:48:52Z</time>
            </trkpt>
            <trkpt lon="99.652908" lat="13.187912">
                <ele>109.250000</ele>
                <time>2015-02-21T06:49:48Z</time>
            </trkpt>
            <trkpt lon="99.652423" lat="13.187839">
                <ele>109.250000</ele>
                <time>2015-02-21T06:49:57Z</time>
            </trkpt>
            <trkpt lon="99.651769" lat="13.187501">
                <ele>109.730000</ele>
                <time>2015-02-21T06:50:18Z</time>
            </trkpt>
            <trkpt lon="99.652491" lat="13.187870">
                <ele>109.730000</ele>
                <time>2015-02-21T06:50:46Z</time>
            </trkpt>
            <trkpt lon="99.653111" lat="13.187964">
                <ele>109.250000</ele>
                <time>2015-02-21T06:51:04Z</time>
            </trkpt>
            <trkpt lon="99.653355" lat="13.188168">
                <ele>107.810000</ele>
                <time>2015-02-21T06:51:20Z</time>
            </trkpt>
            <trkpt lon="99.652939" lat="13.189036">
                <ele>112.610000</ele>
                <time>2015-02-21T06:51:52Z</time>
            </trkpt>
            <trkpt lon="99.652768" lat="13.189021">
                <ele>112.610000</ele>
                <time>2015-02-21T06:51:58Z</time>
            </trkpt>
            <trkpt lon="99.651596" lat="13.188762">
                <ele>115.010000</ele>
                <time>2015-02-21T06:52:41Z</time>
            </trkpt>
            <trkpt lon="99.651410" lat="13.188737">
                <ele>114.530000</ele>
                <time>2015-02-21T06:52:47Z</time>
            </trkpt>
            <trkpt lon="99.651701" lat="13.187559">
                <ele>106.840000</ele>
                <time>2015-02-21T06:53:09Z</time>
            </trkpt>
            <trkpt lon="99.651635" lat="13.187373">
                <ele>107.320000</ele>
                <time>2015-02-21T06:53:14Z</time>
            </trkpt>
            <trkpt lon="99.651176" lat="13.187012">
                <ele>110.210000</ele>
                <time>2015-02-21T06:53:49Z</time>
            </trkpt>
            <trkpt lon="99.651198" lat="13.187243">
                <ele>110.690000</ele>
                <time>2015-02-21T06:54:00Z</time>
            </trkpt>
            <trkpt lon="99.651130" lat="13.186976">
                <ele>110.210000</ele>
                <time>2015-02-21T06:54:27Z</time>
            </trkpt>
            <trkpt lon="99.650110" lat="13.186211">
                <ele>109.730000</ele>
                <time>2015-02-21T06:54:48Z</time>
            </trkpt>
            <trkpt lon="99.649331" lat="13.185809">
                <ele>109.730000</ele>
                <time>2015-02-21T06:55:02Z</time>
            </trkpt>
            <trkpt lon="99.648840" lat="13.185179">
                <ele>109.730000</ele>
                <time>2015-02-21T06:55:15Z</time>
            </trkpt>
            <trkpt lon="99.648504" lat="13.184729">
                <ele>108.770000</ele>
                <time>2015-02-21T06:55:24Z</time>
            </trkpt>
            <trkpt lon="99.647967" lat="13.184631">
                <ele>108.770000</ele>
                <time>2015-02-21T06:55:33Z</time>
            </trkpt>
            <trkpt lon="99.647650" lat="13.184740">
                <ele>108.770000</ele>
                <time>2015-02-21T06:55:38Z</time>
            </trkpt>
            <trkpt lon="99.647227" lat="13.184592">
                <ele>108.770000</ele>
                <time>2015-02-21T06:55:46Z</time>
            </trkpt>
            <trkpt lon="99.647082" lat="13.183977">
                <ele>109.250000</ele>
                <time>2015-02-21T06:55:56Z</time>
            </trkpt>
            <trkpt lon="99.646763" lat="13.183702">
                <ele>109.250000</ele>
                <time>2015-02-21T06:56:03Z</time>
            </trkpt>
            <trkpt lon="99.646081" lat="13.183425">
                <ele>108.290000</ele>
                <time>2015-02-21T06:56:15Z</time>
            </trkpt>
            <trkpt lon="99.645837" lat="13.183152">
                <ele>108.290000</ele>
                <time>2015-02-21T06:56:21Z</time>
            </trkpt>
            <trkpt lon="99.645722" lat="13.182777">
                <ele>108.290000</ele>
                <time>2015-02-21T06:56:28Z</time>
            </trkpt>
            <trkpt lon="99.645665" lat="13.182706">
                <ele>108.290000</ele>
                <time>2015-02-21T06:56:30Z</time>
            </trkpt>
            <trkpt lon="99.645337" lat="13.182534">
                <ele>107.810000</ele>
                <time>2015-02-21T06:56:40Z</time>
            </trkpt>
            <trkpt lon="99.644753" lat="13.182928">
                <ele>107.810000</ele>
                <time>2015-02-21T06:56:55Z</time>
            </trkpt>
            <trkpt lon="99.644082" lat="13.183534">
                <ele>107.810000</ele>
                <time>2015-02-21T06:57:12Z</time>
            </trkpt>
            <trkpt lon="99.644049" lat="13.183677">
                <ele>108.290000</ele>
                <time>2015-02-21T06:57:16Z</time>
            </trkpt>
            <trkpt lon="99.644063" lat="13.183700">
                <ele>108.290000</ele>
                <time>2015-02-21T06:57:17Z</time>
            </trkpt>
            <trkpt lon="99.644123" lat="13.183973">
                <ele>113.090000</ele>
                <time>2015-02-21T06:57:30Z</time>
            </trkpt>
            <trkpt lon="99.643616" lat="13.185717">
                <ele>113.570000</ele>
                <time>2015-02-21T06:58:11Z</time>
            </trkpt>
            <trkpt lon="99.643778" lat="13.186783">
                <ele>118.380000</ele>
                <time>2015-02-21T06:58:36Z</time>
            </trkpt>
            <trkpt lon="99.643762" lat="13.186903">
                <ele>118.380000</ele>
                <time>2015-02-21T06:58:39Z</time>
            </trkpt>
            <trkpt lon="99.639624" lat="13.189242">
                <ele>115.500000</ele>
                <time>2015-02-21T07:00:02Z</time>
            </trkpt>
            <trkpt lon="99.640292" lat="13.188857">
                <ele>115.980000</ele>
                <time>2015-02-21T07:00:31Z</time>
            </trkpt>
            <trkpt lon="99.639568" lat="13.188386">
                <ele>111.650000</ele>
                <time>2015-02-21T07:00:56Z</time>
            </trkpt>
            <trkpt lon="99.639304" lat="13.188036">
                <ele>111.170000</ele>
                <time>2015-02-21T07:01:08Z</time>
            </trkpt>
            <trkpt lon="99.639283" lat="13.187457">
                <ele>113.090000</ele>
                <time>2015-02-21T07:01:30Z</time>
            </trkpt>
            <trkpt lon="99.639394" lat="13.188210">
                <ele>112.130000</ele>
                <time>2015-02-21T07:01:55Z</time>
            </trkpt>
            <trkpt lon="99.640304" lat="13.188880">
                <ele>119.340000</ele>
                <time>2015-02-21T07:02:35Z</time>
            </trkpt>
            <trkpt lon="99.642352" lat="13.187762">
                <ele>114.050000</ele>
                <time>2015-02-21T07:04:52Z</time>
            </trkpt>
            <trkpt lon="99.640889" lat="13.188512">
                <ele>116.460000</ele>
                <time>2015-02-21T07:06:10Z</time>
            </trkpt>
            <trkpt lon="99.641017" lat="13.188894">
                <ele>119.820000</ele>
                <time>2015-02-21T07:06:37Z</time>
            </trkpt>
            <trkpt lon="99.641274" lat="13.189904">
                <ele>119.340000</ele>
                <time>2015-02-21T07:07:06Z</time>
            </trkpt>
            <trkpt lon="99.641584" lat="13.190985">
                <ele>126.070000</ele>
                <time>2015-02-21T07:08:10Z</time>
            </trkpt>
            <trkpt lon="99.640763" lat="13.191453">
                <ele>124.630000</ele>
                <time>2015-02-21T07:09:03Z</time>
            </trkpt>
            <trkpt lon="99.640402" lat="13.191419">
                <ele>126.070000</ele>
                <time>2015-02-21T07:09:16Z</time>
            </trkpt>
            <trkpt lon="99.639645" lat="13.191449">
                <ele>122.710000</ele>
                <time>2015-02-21T07:09:42Z</time>
            </trkpt>
            <trkpt lon="99.639564" lat="13.191447">
                <ele>122.220000</ele>
                <time>2015-02-21T07:09:44Z</time>
            </trkpt>
            <trkpt lon="99.639438" lat="13.191444">
                <ele>122.220000</ele>
                <time>2015-02-21T07:09:47Z</time>
            </trkpt>
            <trkpt lon="99.639172" lat="13.191458">
                <ele>123.190000</ele>
                <time>2015-02-21T07:09:55Z</time>
            </trkpt>
            <trkpt lon="99.639104" lat="13.191240">
                <ele>121.740000</ele>
                <time>2015-02-21T07:10:01Z</time>
            </trkpt>
            <trkpt lon="99.638803" lat="13.191261">
                <ele>122.710000</ele>
                <time>2015-02-21T07:10:14Z</time>
            </trkpt>
            <trkpt lon="99.638671" lat="13.190887">
                <ele>120.780000</ele>
                <time>2015-02-21T07:10:27Z</time>
            </trkpt>
            <trkpt lon="99.638518" lat="13.190860">
                <ele>120.780000</ele>
                <time>2015-02-21T07:10:36Z</time>
            </trkpt>
            <trkpt lon="99.638437" lat="13.190846">
                <ele>119.340000</ele>
                <time>2015-02-21T07:10:39Z</time>
            </trkpt>
            <trkpt lon="99.638130" lat="13.190890">
                <ele>119.340000</ele>
                <time>2015-02-21T07:10:49Z</time>
            </trkpt>
            <trkpt lon="99.637926" lat="13.191395">
                <ele>122.710000</ele>
                <time>2015-02-21T07:11:13Z</time>
            </trkpt>
            <trkpt lon="99.637918" lat="13.191410">
                <ele>122.710000</ele>
                <time>2015-02-21T07:11:14Z</time>
            </trkpt>
            <trkpt lon="99.637569" lat="13.191409">
                <ele>125.590000</ele>
                <time>2015-02-21T07:11:33Z</time>
            </trkpt>
            <trkpt lon="99.637061" lat="13.191271">
                <ele>124.630000</ele>
                <time>2015-02-21T07:11:51Z</time>
            </trkpt>
            <trkpt lon="99.636325" lat="13.191115">
                <ele>117.900000</ele>
                <time>2015-02-21T07:12:16Z</time>
            </trkpt>
            <trkpt lon="99.636196" lat="13.190756">
                <ele>113.090000</ele>
                <time>2015-02-21T07:12:51Z</time>
            </trkpt>
            <trkpt lon="99.636086" lat="13.190694">
                <ele>118.380000</ele>
                <time>2015-02-21T07:13:16Z</time>
            </trkpt>
            <trkpt lon="99.636028" lat="13.190710">
                <ele>119.340000</ele>
                <time>2015-02-21T07:13:18Z</time>
            </trkpt>
            <trkpt lon="99.635581" lat="13.190854">
                <ele>123.190000</ele>
                <time>2015-02-21T07:13:33Z</time>
            </trkpt>
            <trkpt lon="99.634886" lat="13.191168">
                <ele>123.670000</ele>
                <time>2015-02-21T07:13:48Z</time>
            </trkpt>
            <trkpt lon="99.633843" lat="13.191731">
                <ele>115.980000</ele>
                <time>2015-02-21T07:14:10Z</time>
            </trkpt>
            <trkpt lon="99.631975" lat="13.192813">
                <ele>115.980000</ele>
                <time>2015-02-21T07:14:50Z</time>
            </trkpt>
            <trkpt lon="99.631545" lat="13.193167">
                <ele>119.340000</ele>
                <time>2015-02-21T07:15:07Z</time>
            </trkpt>
            <trkpt lon="99.631949" lat="13.192819">
                <ele>119.340000</ele>
                <time>2015-02-21T07:15:36Z</time>
            </trkpt>
            <trkpt lon="99.631911" lat="13.192706">
                <ele>119.340000</ele>
                <time>2015-02-21T07:15:40Z</time>
            </trkpt>
            <trkpt lon="99.631220" lat="13.191720">
                <ele>121.740000</ele>
                <time>2015-02-21T07:16:13Z</time>
            </trkpt>
            <trkpt lon="99.631155" lat="13.191637">
                <ele>121.740000</ele>
                <time>2015-02-21T07:16:17Z</time>
            </trkpt>
            <trkpt lon="99.630230" lat="13.191934">
                <ele>126.070000</ele>
                <time>2015-02-21T07:16:57Z</time>
            </trkpt>
            <trkpt lon="99.629909" lat="13.192056">
                <ele>123.670000</ele>
                <time>2015-02-21T07:17:08Z</time>
            </trkpt>
            <trkpt lon="99.629598" lat="13.192359">
                <ele>121.740000</ele>
                <time>2015-02-21T07:17:23Z</time>
            </trkpt>
            <trkpt lon="99.629613" lat="13.192484">
                <ele>121.260000</ele>
                <time>2015-02-21T07:17:27Z</time>
            </trkpt>
            <trkpt lon="99.629800" lat="13.192708">
                <ele>121.260000</ele>
                <time>2015-02-21T07:17:34Z</time>
            </trkpt>
            <trkpt lon="99.629641" lat="13.192921">
                <ele>120.780000</ele>
                <time>2015-02-21T07:17:43Z</time>
            </trkpt>
            <trkpt lon="99.628991" lat="13.193283">
                <ele>128.470000</ele>
                <time>2015-02-21T07:19:03Z</time>
            </trkpt>
            <trkpt lon="99.628595" lat="13.193530">
                <ele>130.400000</ele>
                <time>2015-02-21T07:20:08Z</time>
            </trkpt>
            <trkpt lon="99.627334" lat="13.194351">
                <ele>125.110000</ele>
                <time>2015-02-21T07:21:04Z</time>
            </trkpt>
            <trkpt lon="99.627417" lat="13.194562">
                <ele>123.670000</ele>
                <time>2015-02-21T07:21:11Z</time>
            </trkpt>
            <trkpt lon="99.627573" lat="13.194783">
                <ele>117.900000</ele>
                <time>2015-02-21T07:21:20Z</time>
            </trkpt>
            <trkpt lon="99.627545" lat="13.194854">
                <ele>115.500000</ele>
                <time>2015-02-21T07:21:24Z</time>
            </trkpt>
            <trkpt lon="99.627157" lat="13.194708">
                <ele>116.460000</ele>
                <time>2015-02-21T07:21:53Z</time>
            </trkpt>
            <trkpt lon="99.626993" lat="13.194844">
                <ele>117.900000</ele>
                <time>2015-02-21T07:22:03Z</time>
            </trkpt>
            <trkpt lon="99.626877" lat="13.194779">
                <ele>118.860000</ele>
                <time>2015-02-21T07:22:11Z</time>
            </trkpt>
            <trkpt lon="99.626737" lat="13.194752">
                <ele>121.260000</ele>
                <time>2015-02-21T07:22:27Z</time>
            </trkpt>
            <trkpt lon="99.626931" lat="13.195079">
                <ele>122.220000</ele>
                <time>2015-02-21T07:22:47Z</time>
            </trkpt>
            <trkpt lon="99.627420" lat="13.195301">
                <ele>125.590000</ele>
                <time>2015-02-21T07:23:12Z</time>
            </trkpt>
            <trkpt lon="99.627479" lat="13.195443">
                <ele>127.030000</ele>
                <time>2015-02-21T07:23:21Z</time>
            </trkpt>
            <trkpt lon="99.627545" lat="13.195816">
                <ele>127.030000</ele>
                <time>2015-02-21T07:23:37Z</time>
            </trkpt>
            <trkpt lon="99.627615" lat="13.196185">
                <ele>124.630000</ele>
                <time>2015-02-21T07:23:49Z</time>
            </trkpt>
            <trkpt lon="99.627741" lat="13.196234">
                <ele>124.150000</ele>
                <time>2015-02-21T07:23:56Z</time>
            </trkpt>
            <trkpt lon="99.627803" lat="13.196201">
                <ele>123.670000</ele>
                <time>2015-02-21T07:23:58Z</time>
            </trkpt>
            <trkpt lon="99.628193" lat="13.195912">
                <ele>123.190000</ele>
                <time>2015-02-21T07:24:12Z</time>
            </trkpt>
            <trkpt lon="99.628490" lat="13.196408">
                <ele>123.670000</ele>
                <time>2015-02-21T07:24:31Z</time>
            </trkpt>
            <trkpt lon="99.628848" lat="13.196469">
                <ele>124.150000</ele>
                <time>2015-02-21T07:24:43Z</time>
            </trkpt>
            <trkpt lon="99.629508" lat="13.197080">
                <ele>123.190000</ele>
                <time>2015-02-21T07:25:11Z</time>
            </trkpt>
            <trkpt lon="99.629585" lat="13.197959">
                <ele>125.110000</ele>
                <time>2015-02-21T07:25:37Z</time>
            </trkpt>
            <trkpt lon="99.629319" lat="13.198498">
                <ele>125.590000</ele>
                <time>2015-02-21T07:25:53Z</time>
            </trkpt>
            <trkpt lon="99.628578" lat="13.198687">
                <ele>126.070000</ele>
                <time>2015-02-21T07:26:21Z</time>
            </trkpt>
            <trkpt lon="99.628561" lat="13.198720">
                <ele>126.070000</ele>
                <time>2015-02-21T07:26:23Z</time>
            </trkpt>
            <trkpt lon="99.628526" lat="13.198803">
                <ele>126.070000</ele>
                <time>2015-02-21T07:26:29Z</time>
            </trkpt>
            <trkpt lon="99.628644" lat="13.198760">
                <ele>127.990000</ele>
                <time>2015-02-21T07:26:50Z</time>
            </trkpt>
            <trkpt lon="99.628242" lat="13.198125">
                <ele>127.030000</ele>
                <time>2015-02-21T07:27:14Z</time>
            </trkpt>
            <trkpt lon="99.627563" lat="13.197840">
                <ele>127.990000</ele>
                <time>2015-02-21T07:27:55Z</time>
            </trkpt>
            <trkpt lon="99.627539" lat="13.197818">
                <ele>128.470000</ele>
                <time>2015-02-21T07:28:01Z</time>
            </trkpt>
            <trkpt lon="99.627316" lat="13.197676">
                <ele>127.990000</ele>
                <time>2015-02-21T07:28:16Z</time>
            </trkpt>
            <trkpt lon="99.626904" lat="13.198659">
                <ele>130.400000</ele>
                <time>2015-02-21T07:28:51Z</time>
            </trkpt>
            <trkpt lon="99.626678" lat="13.198852">
                <ele>131.840000</ele>
                <time>2015-02-21T07:29:01Z</time>
            </trkpt>
            <trkpt lon="99.626625" lat="13.199550">
                <ele>134.720000</ele>
                <time>2015-02-21T07:29:26Z</time>
            </trkpt>
            <trkpt lon="99.626248" lat="13.199775">
                <ele>137.130000</ele>
                <time>2015-02-21T07:29:44Z</time>
            </trkpt>
            <trkpt lon="99.626215" lat="13.199767">
                <ele>137.130000</ele>
                <time>2015-02-21T07:29:45Z</time>
            </trkpt>
            <trkpt lon="99.625161" lat="13.199725">
                <ele>147.700000</ele>
                <time>2015-02-21T07:30:31Z</time>
            </trkpt>
            <trkpt lon="99.624882" lat="13.199773">
                <ele>148.180000</ele>
                <time>2015-02-21T07:30:39Z</time>
            </trkpt>
            <trkpt lon="99.624139" lat="13.200186">
                <ele>143.850000</ele>
                <time>2015-02-21T07:31:34Z</time>
            </trkpt>
            <trkpt lon="99.624206" lat="13.199869">
                <ele>147.700000</ele>
                <time>2015-02-21T07:31:45Z</time>
            </trkpt>
            <trkpt lon="99.624147" lat="13.199837">
                <ele>145.780000</ele>
                <time>2015-02-21T07:32:41Z</time>
            </trkpt>
            <trkpt lon="99.624107" lat="13.200153">
                <ele>146.740000</ele>
                <time>2015-02-21T07:34:00Z</time>
            </trkpt>
            <trkpt lon="99.624463" lat="13.199866">
                <ele>160.200000</ele>
                <time>2015-02-21T07:34:23Z</time>
            </trkpt>
            <trkpt lon="99.624960" lat="13.199703">
                <ele>165.480000</ele>
                <time>2015-02-21T07:34:51Z</time>
            </trkpt>
            <trkpt lon="99.625775" lat="13.199673">
                <ele>149.620000</ele>
                <time>2015-02-21T07:35:48Z</time>
            </trkpt>
            <trkpt lon="99.625680" lat="13.196372">
                <ele>160.200000</ele>
                <time>2015-02-21T07:36:53Z</time>
            </trkpt>
            <trkpt lon="99.625783" lat="13.196292">
                <ele>156.350000</ele>
                <time>2015-02-21T07:36:56Z</time>
            </trkpt>
            <trkpt lon="99.625792" lat="13.196152">
                <ele>148.180000</ele>
                <time>2015-02-21T07:37:00Z</time>
            </trkpt>
            <trkpt lon="99.624381" lat="13.195810">
                <ele>128.470000</ele>
                <time>2015-02-21T07:37:23Z</time>
            </trkpt>
            <trkpt lon="99.621721" lat="13.196049">
                <ele>139.530000</ele>
                <time>2015-02-21T07:38:36Z</time>
            </trkpt>
            <trkpt lon="99.620992" lat="13.195822">
                <ele>141.450000</ele>
                <time>2015-02-21T07:38:58Z</time>
            </trkpt>
            <trkpt lon="99.620763" lat="13.195576">
                <ele>141.450000</ele>
                <time>2015-02-21T07:39:05Z</time>
            </trkpt>
            <trkpt lon="99.620302" lat="13.194748">
                <ele>138.570000</ele>
                <time>2015-02-21T07:39:20Z</time>
            </trkpt>
            <trkpt lon="99.620122" lat="13.194823">
                <ele>136.640000</ele>
                <time>2015-02-21T07:39:24Z</time>
            </trkpt>
            <trkpt lon="99.619945" lat="13.194931">
                <ele>135.200000</ele>
                <time>2015-02-21T07:39:27Z</time>
            </trkpt>
            <trkpt lon="99.619242" lat="13.194947">
                <ele>131.360000</ele>
                <time>2015-02-21T07:40:02Z</time>
            </trkpt>
            <trkpt lon="99.617935" lat="13.195547">
                <ele>136.160000</ele>
                <time>2015-02-21T07:41:07Z</time>
            </trkpt>
            <trkpt lon="99.618106" lat="13.196037">
                <ele>136.640000</ele>
                <time>2015-02-21T07:41:26Z</time>
            </trkpt>
            <trkpt lon="99.617851" lat="13.196323">
                <ele>142.890000</ele>
                <time>2015-02-21T07:41:46Z</time>
            </trkpt>
            <trkpt lon="99.617120" lat="13.195796">
                <ele>147.700000</ele>
                <time>2015-02-21T07:42:21Z</time>
            </trkpt>
            <trkpt lon="99.616980" lat="13.195913">
                <ele>148.180000</ele>
                <time>2015-02-21T07:42:29Z</time>
            </trkpt>
            <trkpt lon="99.616737" lat="13.195892">
                <ele>144.820000</ele>
                <time>2015-02-21T07:42:37Z</time>
            </trkpt>
            <trkpt lon="99.616307" lat="13.195838">
                <ele>134.240000</ele>
                <time>2015-02-21T07:44:00Z</time>
            </trkpt>
            <trkpt lon="99.616063" lat="13.196014">
                <ele>131.840000</ele>
                <time>2015-02-21T07:44:37Z</time>
            </trkpt>
            <trkpt lon="99.616005" lat="13.196140">
                <ele>130.400000</ele>
                <time>2015-02-21T07:44:53Z</time>
            </trkpt>
            <trkpt lon="99.616001" lat="13.196170">
                <ele>128.950000</ele>
                <time>2015-02-21T07:45:21Z</time>
            </trkpt>
            <trkpt lon="99.615723" lat="13.196068">
                <ele>141.450000</ele>
                <time>2015-02-21T07:47:08Z</time>
            </trkpt>
            <trkpt lon="99.615668" lat="13.196013">
                <ele>135.200000</ele>
                <time>2015-02-21T07:47:29Z</time>
            </trkpt>
            <trkpt lon="99.615668" lat="13.195988">
                <ele>130.400000</ele>
                <time>2015-02-21T07:48:12Z</time>
            </trkpt>
            <trkpt lon="99.615330" lat="13.196851">
                <ele>135.680000</ele>
                <time>2015-02-21T07:48:50Z</time>
            </trkpt>
            <trkpt lon="99.615062" lat="13.197087">
                <ele>137.610000</ele>
                <time>2015-02-21T07:49:01Z</time>
            </trkpt>
            <trkpt lon="99.614580" lat="13.197341">
                <ele>139.530000</ele>
                <time>2015-02-21T07:49:16Z</time>
            </trkpt>
            <trkpt lon="99.614300" lat="13.197456">
                <ele>140.010000</ele>
                <time>2015-02-21T07:49:27Z</time>
            </trkpt>
            <trkpt lon="99.614191" lat="13.197512">
                <ele>137.130000</ele>
                <time>2015-02-21T07:49:38Z</time>
            </trkpt>
            <trkpt lon="99.613897" lat="13.197561">
                <ele>135.200000</ele>
                <time>2015-02-21T07:50:20Z</time>
            </trkpt>
            <trkpt lon="99.613708" lat="13.197548">
                <ele>139.530000</ele>
                <time>2015-02-21T07:50:36Z</time>
            </trkpt>
            <trkpt lon="99.613477" lat="13.197491">
                <ele>139.050000</ele>
                <time>2015-02-21T07:51:05Z</time>
            </trkpt>
            <trkpt lon="99.613470" lat="13.197423">
                <ele>137.610000</ele>
                <time>2015-02-21T07:51:15Z</time>
            </trkpt>
            <trkpt lon="99.613422" lat="13.197223">
                <ele>136.160000</ele>
                <time>2015-02-21T07:51:20Z</time>
            </trkpt>
            <trkpt lon="99.612928" lat="13.197120">
                <ele>136.640000</ele>
                <time>2015-02-21T07:51:36Z</time>
            </trkpt>
            <trkpt lon="99.612807" lat="13.196905">
                <ele>136.160000</ele>
                <time>2015-02-21T07:51:44Z</time>
            </trkpt>
            <trkpt lon="99.612650" lat="13.195932">
                <ele>138.570000</ele>
                <time>2015-02-21T07:52:15Z</time>
            </trkpt>
            <trkpt lon="99.613048" lat="13.195822">
                <ele>137.610000</ele>
                <time>2015-02-21T07:52:30Z</time>
            </trkpt>
            <trkpt lon="99.612914" lat="13.195349">
                <ele>138.090000</ele>
                <time>2015-02-21T07:52:45Z</time>
            </trkpt>
            <trkpt lon="99.610079" lat="13.195517">
                <ele>150.100000</ele>
                <time>2015-02-21T07:54:18Z</time>
            </trkpt>
            <trkpt lon="99.609513" lat="13.195500">
                <ele>152.990000</ele>
                <time>2015-02-21T07:54:38Z</time>
            </trkpt>
            <trkpt lon="99.609223" lat="13.195323">
                <ele>153.470000</ele>
                <time>2015-02-21T07:54:50Z</time>
            </trkpt>
            <trkpt lon="99.608254" lat="13.194199">
                <ele>154.910000</ele>
                <time>2015-02-21T07:55:37Z</time>
            </trkpt>
            <trkpt lon="99.608187" lat="13.193951">
                <ele>154.430000</ele>
                <time>2015-02-21T07:55:44Z</time>
            </trkpt>
            <trkpt lon="99.608166" lat="13.193865">
                <ele>153.950000</ele>
                <time>2015-02-21T07:55:46Z</time>
            </trkpt>
            <trkpt lon="99.608108" lat="13.193793">
                <ele>153.470000</ele>
                <time>2015-02-21T07:55:48Z</time>
            </trkpt>
            <trkpt lon="99.608008" lat="13.193745">
                <ele>152.030000</ele>
                <time>2015-02-21T07:55:50Z</time>
            </trkpt>
            <trkpt lon="99.607804" lat="13.193642">
                <ele>149.620000</ele>
                <time>2015-02-21T07:55:53Z</time>
            </trkpt>
            <trkpt lon="99.607686" lat="13.193523">
                <ele>148.180000</ele>
                <time>2015-02-21T07:55:55Z</time>
            </trkpt>
            <trkpt lon="99.607547" lat="13.193283">
                <ele>145.780000</ele>
                <time>2015-02-21T07:55:58Z</time>
            </trkpt>
            <trkpt lon="99.607405" lat="13.192947">
                <ele>142.890000</ele>
                <time>2015-02-21T07:56:02Z</time>
            </trkpt>
            <trkpt lon="99.607409" lat="13.190781">
                <ele>149.620000</ele>
                <time>2015-02-21T07:56:51Z</time>
            </trkpt>
            <trkpt lon="99.606818" lat="13.190742">
                <ele>149.140000</ele>
                <time>2015-02-21T07:57:49Z</time>
            </trkpt>
            <trkpt lon="99.606842" lat="13.190744">
                <ele>153.950000</ele>
                <time>2015-02-21T07:58:28Z</time>
            </trkpt>
            <trkpt lon="99.606843" lat="13.190745">
                <ele>149.620000</ele>
                <time>2015-02-21T07:59:16Z</time>
            </trkpt>
            <trkpt lon="99.606833" lat="13.190740">
                <ele>142.890000</ele>
                <time>2015-02-21T08:01:25Z</time>
            </trkpt>
            <trkpt lon="99.606835" lat="13.190774">
                <ele>140.970000</ele>
                <time>2015-02-21T08:06:00Z</time>
            </trkpt>
            <trkpt lon="99.606855" lat="13.190756">
                <ele>143.370000</ele>
                <time>2015-02-21T08:07:32Z</time>
            </trkpt>
            <trkpt lon="99.606820" lat="13.190768">
                <ele>143.850000</ele>
                <time>2015-02-21T08:11:10Z</time>
            </trkpt>
            <trkpt lon="99.606832" lat="13.190767">
                <ele>149.140000</ele>
                <time>2015-02-21T08:17:30Z</time>
            </trkpt>
            <trkpt lon="99.606846" lat="13.190761">
                <ele>149.140000</ele>
                <time>2015-02-21T08:17:45Z</time>
            </trkpt>
            <trkpt lon="99.606894" lat="13.190764">
                <ele>148.660000</ele>
                <time>2015-02-21T08:17:47Z</time>
            </trkpt>
            <trkpt lon="99.606966" lat="13.190774">
                <ele>148.660000</ele>
                <time>2015-02-21T08:17:49Z</time>
            </trkpt>
            <trkpt lon="99.607055" lat="13.190781">
                <ele>149.140000</ele>
                <time>2015-02-21T08:17:51Z</time>
            </trkpt>
            <trkpt lon="99.607387" lat="13.190751">
                <ele>148.660000</ele>
                <time>2015-02-21T08:17:59Z</time>
            </trkpt>
            <trkpt lon="99.607730" lat="13.191353">
                <ele>148.180000</ele>
                <time>2015-02-21T08:18:21Z</time>
            </trkpt>
            <trkpt lon="99.608497" lat="13.191567">
                <ele>152.030000</ele>
                <time>2015-02-21T08:18:48Z</time>
            </trkpt>
            <trkpt lon="99.608677" lat="13.191116">
                <ele>152.030000</ele>
                <time>2015-02-21T08:19:03Z</time>
            </trkpt>
            <trkpt lon="99.609288" lat="13.191280">
                <ele>153.470000</ele>
                <time>2015-02-21T08:19:21Z</time>
            </trkpt>
            <trkpt lon="99.610314" lat="13.191447">
                <ele>151.540000</ele>
                <time>2015-02-21T08:19:51Z</time>
            </trkpt>
            <trkpt lon="99.610980" lat="13.191646">
                <ele>150.580000</ele>
                <time>2015-02-21T08:20:07Z</time>
            </trkpt>
            <trkpt lon="99.611345" lat="13.191603">
                <ele>152.990000</ele>
                <time>2015-02-21T08:20:22Z</time>
            </trkpt>
            <trkpt lon="99.612190" lat="13.191472">
                <ele>153.950000</ele>
                <time>2015-02-21T08:20:50Z</time>
            </trkpt>
            <trkpt lon="99.612375" lat="13.191279">
                <ele>153.950000</ele>
                <time>2015-02-21T08:21:02Z</time>
            </trkpt>
            <trkpt lon="99.612562" lat="13.190569">
                <ele>154.430000</ele>
                <time>2015-02-21T08:21:21Z</time>
            </trkpt>
            <trkpt lon="99.612537" lat="13.190027">
                <ele>154.910000</ele>
                <time>2015-02-21T08:21:37Z</time>
            </trkpt>
            <trkpt lon="99.612229" lat="13.189368">
                <ele>164.040000</ele>
                <time>2015-02-21T08:22:12Z</time>
            </trkpt>
            <trkpt lon="99.612020" lat="13.189176">
                <ele>165.000000</ele>
                <time>2015-02-21T08:22:24Z</time>
            </trkpt>
            <trkpt lon="99.612037" lat="13.189123">
                <ele>165.000000</ele>
                <time>2015-02-21T08:22:26Z</time>
            </trkpt>
            <trkpt lon="99.612098" lat="13.188952">
                <ele>165.480000</ele>
                <time>2015-02-21T08:22:30Z</time>
            </trkpt>
            <trkpt lon="99.612253" lat="13.188821">
                <ele>165.960000</ele>
                <time>2015-02-21T08:22:34Z</time>
            </trkpt>
            <trkpt lon="99.612475" lat="13.188749">
                <ele>165.960000</ele>
                <time>2015-02-21T08:22:38Z</time>
            </trkpt>
            <trkpt lon="99.613616" lat="13.188377">
                <ele>161.640000</ele>
                <time>2015-02-21T08:23:08Z</time>
            </trkpt>
            <trkpt lon="99.614070" lat="13.188573">
                <ele>153.470000</ele>
                <time>2015-02-21T08:23:20Z</time>
            </trkpt>
            <trkpt lon="99.614662" lat="13.188976">
                <ele>143.370000</ele>
                <time>2015-02-21T08:23:36Z</time>
            </trkpt>
            <trkpt lon="99.615109" lat="13.188911">
                <ele>142.890000</ele>
                <time>2015-02-21T08:23:47Z</time>
            </trkpt>
            <trkpt lon="99.615186" lat="13.188950">
                <ele>141.930000</ele>
                <time>2015-02-21T08:23:49Z</time>
            </trkpt>
            <trkpt lon="99.615346" lat="13.189050">
                <ele>144.340000</ele>
                <time>2015-02-21T08:24:10Z</time>
            </trkpt>
            <trkpt lon="99.615561" lat="13.188755">
                <ele>161.640000</ele>
                <time>2015-02-21T08:25:00Z</time>
            </trkpt>
            <trkpt lon="99.615316" lat="13.188369">
                <ele>173.170000</ele>
                <time>2015-02-21T08:25:47Z</time>
            </trkpt>
            <trkpt lon="99.615288" lat="13.187986">
                <ele>172.210000</ele>
                <time>2015-02-21T08:25:56Z</time>
            </trkpt>
            <trkpt lon="99.615316" lat="13.187893">
                <ele>169.810000</ele>
                <time>2015-02-21T08:26:25Z</time>
            </trkpt>
            <trkpt lon="99.615300" lat="13.188245">
                <ele>172.690000</ele>
                <time>2015-02-21T08:26:44Z</time>
            </trkpt>
            <trkpt lon="99.615418" lat="13.188556">
                <ele>171.730000</ele>
                <time>2015-02-21T08:26:55Z</time>
            </trkpt>
            <trkpt lon="99.615560" lat="13.188726">
                <ele>168.370000</ele>
                <time>2015-02-21T08:27:00Z</time>
            </trkpt>
            <trkpt lon="99.615512" lat="13.189056">
                <ele>161.160000</ele>
                <time>2015-02-21T08:27:10Z</time>
            </trkpt>
            <trkpt lon="99.616513" lat="13.189177">
                <ele>148.180000</ele>
                <time>2015-02-21T08:27:32Z</time>
            </trkpt>
            <trkpt lon="99.617173" lat="13.189529">
                <ele>142.890000</ele>
                <time>2015-02-21T08:27:46Z</time>
            </trkpt>
            <trkpt lon="99.618347" lat="13.189426">
                <ele>140.970000</ele>
                <time>2015-02-21T08:28:09Z</time>
            </trkpt>
            <trkpt lon="99.618497" lat="13.189495">
                <ele>140.010000</ele>
                <time>2015-02-21T08:28:12Z</time>
            </trkpt>
            <trkpt lon="99.618611" lat="13.189510">
                <ele>139.530000</ele>
                <time>2015-02-21T08:28:14Z</time>
            </trkpt>
            <trkpt lon="99.618780" lat="13.189510">
                <ele>138.090000</ele>
                <time>2015-02-21T08:28:17Z</time>
            </trkpt>
            <trkpt lon="99.619118" lat="13.189506">
                <ele>135.680000</ele>
                <time>2015-02-21T08:28:23Z</time>
            </trkpt>
            <trkpt lon="99.620179" lat="13.189469">
                <ele>132.800000</ele>
                <time>2015-02-21T08:28:43Z</time>
            </trkpt>
            <trkpt lon="99.621941" lat="13.190039">
                <ele>132.800000</ele>
                <time>2015-02-21T08:29:18Z</time>
            </trkpt>
            <trkpt lon="99.622417" lat="13.190003">
                <ele>128.950000</ele>
                <time>2015-02-21T08:29:26Z</time>
            </trkpt>
            <trkpt lon="99.622571" lat="13.189711">
                <ele>125.110000</ele>
                <time>2015-02-21T08:29:35Z</time>
            </trkpt>
            <trkpt lon="99.622695" lat="13.189713">
                <ele>122.220000</ele>
                <time>2015-02-21T08:29:39Z</time>
            </trkpt>
            <trkpt lon="99.622665" lat="13.189740">
                <ele>116.460000</ele>
                <time>2015-02-21T08:29:56Z</time>
            </trkpt>
            <trkpt lon="99.624537" lat="13.189715">
                <ele>116.940000</ele>
                <time>2015-02-21T08:30:56Z</time>
            </trkpt>
            <trkpt lon="99.624940" lat="13.189849">
                <ele>120.300000</ele>
                <time>2015-02-21T08:31:04Z</time>
            </trkpt>
            <trkpt lon="99.625528" lat="13.190158">
                <ele>118.380000</ele>
                <time>2015-02-21T08:31:17Z</time>
            </trkpt>
            <trkpt lon="99.626289" lat="13.189977">
                <ele>118.860000</ele>
                <time>2015-02-21T08:31:33Z</time>
            </trkpt>
            <trkpt lon="99.626593" lat="13.190039">
                <ele>119.340000</ele>
                <time>2015-02-21T08:31:39Z</time>
            </trkpt>
            <trkpt lon="99.627587" lat="13.190040">
                <ele>118.380000</ele>
                <time>2015-02-21T08:31:58Z</time>
            </trkpt>
            <trkpt lon="99.628693" lat="13.189900">
                <ele>121.260000</ele>
                <time>2015-02-21T08:32:21Z</time>
            </trkpt>
            <trkpt lon="99.629404" lat="13.189639">
                <ele>120.780000</ele>
                <time>2015-02-21T08:32:36Z</time>
            </trkpt>
            <trkpt lon="99.629762" lat="13.189528">
                <ele>121.260000</ele>
                <time>2015-02-21T08:32:44Z</time>
            </trkpt>
            <trkpt lon="99.630326" lat="13.189185">
                <ele>123.190000</ele>
                <time>2015-02-21T08:33:00Z</time>
            </trkpt>
            <trkpt lon="99.631062" lat="13.189139">
                <ele>123.670000</ele>
                <time>2015-02-21T08:33:17Z</time>
            </trkpt>
            <trkpt lon="99.634638" lat="13.189479">
                <ele>115.010000</ele>
                <time>2015-02-21T08:34:19Z</time>
            </trkpt>
            <trkpt lon="99.635001" lat="13.187283">
                <ele>111.170000</ele>
                <time>2015-02-21T08:35:01Z</time>
            </trkpt>
            <trkpt lon="99.633722" lat="13.187220">
                <ele>114.050000</ele>
                <time>2015-02-21T08:35:30Z</time>
            </trkpt>
            <trkpt lon="99.633337" lat="13.187168">
                <ele>117.900000</ele>
                <time>2015-02-21T08:35:51Z</time>
            </trkpt>
            <trkpt lon="99.633193" lat="13.187252">
                <ele>118.860000</ele>
                <time>2015-02-21T08:36:07Z</time>
            </trkpt>
            <trkpt lon="99.632743" lat="13.187156">
                <ele>117.900000</ele>
                <time>2015-02-21T08:36:46Z</time>
            </trkpt>
            <trkpt lon="99.633004" lat="13.186540">
                <ele>115.500000</ele>
                <time>2015-02-21T08:38:04Z</time>
            </trkpt>
            <trkpt lon="99.633311" lat="13.186208">
                <ele>116.460000</ele>
                <time>2015-02-21T08:38:21Z</time>
            </trkpt>
            <trkpt lon="99.633374" lat="13.185959">
                <ele>118.860000</ele>
                <time>2015-02-21T08:38:34Z</time>
            </trkpt>
            <trkpt lon="99.633405" lat="13.185666">
                <ele>119.820000</ele>
                <time>2015-02-21T08:38:46Z</time>
            </trkpt>
            <trkpt lon="99.633128" lat="13.185138">
                <ele>121.740000</ele>
                <time>2015-02-21T08:39:05Z</time>
            </trkpt>
            <trkpt lon="99.632978" lat="13.184721">
                <ele>122.710000</ele>
                <time>2015-02-21T08:39:21Z</time>
            </trkpt>
            <trkpt lon="99.633194" lat="13.184156">
                <ele>121.740000</ele>
                <time>2015-02-21T08:39:47Z</time>
            </trkpt>
            <trkpt lon="99.633003" lat="13.183733">
                <ele>125.110000</ele>
                <time>2015-02-21T08:40:03Z</time>
            </trkpt>
            <trkpt lon="99.633309" lat="13.183464">
                <ele>127.510000</ele>
                <time>2015-02-21T08:40:16Z</time>
            </trkpt>
            <trkpt lon="99.633590" lat="13.183167">
                <ele>126.070000</ele>
                <time>2015-02-21T08:40:24Z</time>
            </trkpt>
            <trkpt lon="99.634414" lat="13.181644">
                <ele>136.160000</ele>
                <time>2015-02-21T08:41:28Z</time>
            </trkpt>
            <trkpt lon="99.634650" lat="13.181268">
                <ele>137.130000</ele>
                <time>2015-02-21T08:41:41Z</time>
            </trkpt>
            <trkpt lon="99.635661" lat="13.180148">
                <ele>128.950000</ele>
                <time>2015-02-21T08:42:13Z</time>
            </trkpt>
            <trkpt lon="99.636520" lat="13.179205">
                <ele>135.200000</ele>
                <time>2015-02-21T08:43:28Z</time>
            </trkpt>
            <trkpt lon="99.637029" lat="13.178883">
                <ele>131.840000</ele>
                <time>2015-02-21T08:44:17Z</time>
            </trkpt>
            <trkpt lon="99.637247" lat="13.178763">
                <ele>129.920000</ele>
                <time>2015-02-21T08:44:22Z</time>
            </trkpt>
            <trkpt lon="99.637528" lat="13.178391">
                <ele>126.550000</ele>
                <time>2015-02-21T08:44:31Z</time>
            </trkpt>
            <trkpt lon="99.637599" lat="13.178416">
                <ele>126.070000</ele>
                <time>2015-02-21T08:44:33Z</time>
            </trkpt>
            <trkpt lon="99.638099" lat="13.178931">
                <ele>123.670000</ele>
                <time>2015-02-21T08:44:45Z</time>
            </trkpt>
            <trkpt lon="99.638195" lat="13.179395">
                <ele>121.740000</ele>
                <time>2015-02-21T08:44:55Z</time>
            </trkpt>
            <trkpt lon="99.638132" lat="13.178930">
                <ele>121.260000</ele>
                <time>2015-02-21T08:45:26Z</time>
            </trkpt>
            <trkpt lon="99.638381" lat="13.178549">
                <ele>121.260000</ele>
                <time>2015-02-21T08:45:39Z</time>
            </trkpt>
            <trkpt lon="99.638835" lat="13.178485">
                <ele>125.590000</ele>
                <time>2015-02-21T08:45:52Z</time>
            </trkpt>
            <trkpt lon="99.639593" lat="13.178421">
                <ele>124.630000</ele>
                <time>2015-02-21T08:46:10Z</time>
            </trkpt>
            <trkpt lon="99.639699" lat="13.179614">
                <ele>120.300000</ele>
                <time>2015-02-21T08:46:31Z</time>
            </trkpt>
            <trkpt lon="99.640266" lat="13.179485">
                <ele>123.670000</ele>
                <time>2015-02-21T08:46:49Z</time>
            </trkpt>
            <trkpt lon="99.640382" lat="13.179571">
                <ele>124.630000</ele>
                <time>2015-02-21T08:46:53Z</time>
            </trkpt>
            <trkpt lon="99.640251" lat="13.180289">
                <ele>126.070000</ele>
                <time>2015-02-21T08:47:19Z</time>
            </trkpt>
            <trkpt lon="99.640480" lat="13.181092">
                <ele>128.470000</ele>
                <time>2015-02-21T08:47:58Z</time>
            </trkpt>
            <trkpt lon="99.640533" lat="13.181771">
                <ele>123.190000</ele>
                <time>2015-02-21T08:48:11Z</time>
            </trkpt>
            <trkpt lon="99.640477" lat="13.182046">
                <ele>117.900000</ele>
                <time>2015-02-21T08:48:17Z</time>
            </trkpt>
            <trkpt lon="99.640239" lat="13.182182">
                <ele>111.170000</ele>
                <time>2015-02-21T08:48:26Z</time>
            </trkpt>
            <trkpt lon="99.640207" lat="13.182179">
                <ele>108.290000</ele>
                <time>2015-02-21T08:48:34Z</time>
            </trkpt>
            <trkpt lon="99.640365" lat="13.182429">
                <ele>109.250000</ele>
                <time>2015-02-21T08:48:45Z</time>
            </trkpt>
            <trkpt lon="99.640645" lat="13.182469">
                <ele>109.730000</ele>
                <time>2015-02-21T08:48:52Z</time>
            </trkpt>
            <trkpt lon="99.641239" lat="13.182189">
                <ele>112.130000</ele>
                <time>2015-02-21T08:50:17Z</time>
            </trkpt>
            <trkpt lon="99.641269" lat="13.182191">
                <ele>111.170000</ele>
                <time>2015-02-21T08:51:40Z</time>
            </trkpt>
            <trkpt lon="99.640771" lat="13.182380">
                <ele>113.090000</ele>
                <time>2015-02-21T08:53:11Z</time>
            </trkpt>
            <trkpt lon="99.640532" lat="13.182519">
                <ele>111.170000</ele>
                <time>2015-02-21T08:58:47Z</time>
            </trkpt>
            <trkpt lon="99.640323" lat="13.182415">
                <ele>110.690000</ele>
                <time>2015-02-21T08:59:13Z</time>
            </trkpt>
            <trkpt lon="99.640687" lat="13.182451">
                <ele>110.210000</ele>
                <time>2015-02-21T08:59:43Z</time>
            </trkpt>
            <trkpt lon="99.640549" lat="13.182499">
                <ele>110.690000</ele>
                <time>2015-02-21T09:00:15Z</time>
            </trkpt>
            <trkpt lon="99.640239" lat="13.182216">
                <ele>111.170000</ele>
                <time>2015-02-21T09:00:35Z</time>
            </trkpt>
            <trkpt lon="99.640469" lat="13.181988">
                <ele>119.820000</ele>
                <time>2015-02-21T09:01:29Z</time>
            </trkpt>
            <trkpt lon="99.640533" lat="13.181733">
                <ele>124.150000</ele>
                <time>2015-02-21T09:01:55Z</time>
            </trkpt>
            <trkpt lon="99.640556" lat="13.181546">
                <ele>126.070000</ele>
                <time>2015-02-21T09:02:14Z</time>
            </trkpt>
            <trkpt lon="99.640362" lat="13.180727">
                <ele>128.470000</ele>
                <time>2015-02-21T09:02:43Z</time>
            </trkpt>
            <trkpt lon="99.640355" lat="13.179498">
                <ele>121.260000</ele>
                <time>2015-02-21T09:03:10Z</time>
            </trkpt>
            <trkpt lon="99.640737" lat="13.179380">
                <ele>118.860000</ele>
                <time>2015-02-21T09:03:29Z</time>
            </trkpt>
            <trkpt lon="99.640791" lat="13.179199">
                <ele>118.860000</ele>
                <time>2015-02-21T09:03:36Z</time>
            </trkpt>
            <trkpt lon="99.641365" lat="13.179130">
                <ele>116.460000</ele>
                <time>2015-02-21T09:03:48Z</time>
            </trkpt>
            <trkpt lon="99.641493" lat="13.179751">
                <ele>113.570000</ele>
                <time>2015-02-21T09:04:00Z</time>
            </trkpt>
            <trkpt lon="99.641707" lat="13.180220">
                <ele>110.690000</ele>
                <time>2015-02-21T09:04:10Z</time>
            </trkpt>
            <trkpt lon="99.642516" lat="13.179894">
                <ele>111.650000</ele>
                <time>2015-02-21T09:04:28Z</time>
            </trkpt>
            <trkpt lon="99.642589" lat="13.179912">
                <ele>112.130000</ele>
                <time>2015-02-21T09:04:30Z</time>
            </trkpt>
            <trkpt lon="99.642663" lat="13.180077">
                <ele>112.130000</ele>
                <time>2015-02-21T09:04:35Z</time>
            </trkpt>
            <trkpt lon="99.643000" lat="13.180878">
                <ele>106.360000</ele>
                <time>2015-02-21T09:04:55Z</time>
            </trkpt>
            <trkpt lon="99.643450" lat="13.180679">
                <ele>106.360000</ele>
                <time>2015-02-21T09:05:07Z</time>
            </trkpt>
            <trkpt lon="99.643330" lat="13.179940">
                <ele>109.730000</ele>
                <time>2015-02-21T09:05:27Z</time>
            </trkpt>
            <trkpt lon="99.643239" lat="13.179631">
                <ele>112.130000</ele>
                <time>2015-02-21T09:05:49Z</time>
            </trkpt>
            <trkpt lon="99.643319" lat="13.179601">
                <ele>109.250000</ele>
                <time>2015-02-21T09:06:03Z</time>
            </trkpt>
            <trkpt lon="99.643397" lat="13.179553">
                <ele>110.210000</ele>
                <time>2015-02-21T09:06:28Z</time>
            </trkpt>
            <trkpt lon="99.644362" lat="13.179872">
                <ele>109.730000</ele>
                <time>2015-02-21T09:07:03Z</time>
            </trkpt>
            <trkpt lon="99.645704" lat="13.180532">
                <ele>109.730000</ele>
                <time>2015-02-21T09:07:31Z</time>
            </trkpt>
            <trkpt lon="99.645891" lat="13.180625">
                <ele>109.250000</ele>
                <time>2015-02-21T09:07:35Z</time>
            </trkpt>
            <trkpt lon="99.646363" lat="13.180631">
                <ele>108.290000</ele>
                <time>2015-02-21T09:07:44Z</time>
            </trkpt>
            <trkpt lon="99.646783" lat="13.180155">
                <ele>109.250000</ele>
                <time>2015-02-21T09:07:57Z</time>
            </trkpt>
            <trkpt lon="99.647128" lat="13.180073">
                <ele>109.250000</ele>
                <time>2015-02-21T09:08:05Z</time>
            </trkpt>
            <trkpt lon="99.648120" lat="13.180519">
                <ele>110.210000</ele>
                <time>2015-02-21T09:08:26Z</time>
            </trkpt>
            <trkpt lon="99.648465" lat="13.180472">
                <ele>109.730000</ele>
                <time>2015-02-21T09:08:33Z</time>
            </trkpt>
            <trkpt lon="99.648723" lat="13.180134">
                <ele>109.730000</ele>
                <time>2015-02-21T09:08:42Z</time>
            </trkpt>
            <trkpt lon="99.648946" lat="13.179142">
                <ele>107.810000</ele>
                <time>2015-02-21T09:09:03Z</time>
            </trkpt>
            <trkpt lon="99.649250" lat="13.178829">
                <ele>107.320000</ele>
                <time>2015-02-21T09:09:12Z</time>
            </trkpt>
            <trkpt lon="99.649522" lat="13.178781">
                <ele>107.320000</ele>
                <time>2015-02-21T09:09:18Z</time>
            </trkpt>
            <trkpt lon="99.650126" lat="13.178939">
                <ele>107.810000</ele>
                <time>2015-02-21T09:09:35Z</time>
            </trkpt>
            <trkpt lon="99.650224" lat="13.178838">
                <ele>106.840000</ele>
                <time>2015-02-21T09:09:43Z</time>
            </trkpt>
            <trkpt lon="99.649987" lat="13.177664">
                <ele>114.530000</ele>
                <time>2015-02-21T09:10:29Z</time>
            </trkpt>
            <trkpt lon="99.649752" lat="13.176498">
                <ele>117.900000</ele>
                <time>2015-02-21T09:11:10Z</time>
            </trkpt>
            <trkpt lon="99.650714" lat="13.176287">
                <ele>121.260000</ele>
                <time>2015-02-21T09:11:45Z</time>
            </trkpt>
            <trkpt lon="99.652203" lat="13.176192">
                <ele>122.220000</ele>
                <time>2015-02-21T09:12:37Z</time>
            </trkpt>
            <trkpt lon="99.653041" lat="13.176100">
                <ele>122.220000</ele>
                <time>2015-02-21T09:13:23Z</time>
            </trkpt>
            <trkpt lon="99.653155" lat="13.174373">
                <ele>130.400000</ele>
                <time>2015-02-21T09:14:44Z</time>
            </trkpt>
            <trkpt lon="99.653424" lat="13.173607">
                <ele>145.300000</ele>
                <time>2015-02-21T09:16:02Z</time>
            </trkpt>
            <trkpt lon="99.653472" lat="13.173282">
                <ele>147.700000</ele>
                <time>2015-02-21T09:16:18Z</time>
            </trkpt>
            <trkpt lon="99.653700" lat="13.171695">
                <ele>137.610000</ele>
                <time>2015-02-21T09:17:16Z</time>
            </trkpt>
            <trkpt lon="99.653809" lat="13.171145">
                <ele>138.570000</ele>
                <time>2015-02-21T09:17:30Z</time>
            </trkpt>
            <trkpt lon="99.653668" lat="13.170964">
                <ele>144.820000</ele>
                <time>2015-02-21T09:17:59Z</time>
            </trkpt>
            <trkpt lon="99.653367" lat="13.170765">
                <ele>153.950000</ele>
                <time>2015-02-21T09:18:14Z</time>
            </trkpt>
            <trkpt lon="99.653379" lat="13.170674">
                <ele>157.790000</ele>
                <time>2015-02-21T09:18:19Z</time>
            </trkpt>
            <trkpt lon="99.653588" lat="13.170447">
                <ele>162.600000</ele>
                <time>2015-02-21T09:18:29Z</time>
            </trkpt>
            <trkpt lon="99.653820" lat="13.170248">
                <ele>163.560000</ele>
                <time>2015-02-21T09:18:37Z</time>
            </trkpt>
            <trkpt lon="99.653973" lat="13.170014">
                <ele>151.540000</ele>
                <time>2015-02-21T09:18:55Z</time>
            </trkpt>
            <trkpt lon="99.654693" lat="13.170367">
                <ele>140.010000</ele>
                <time>2015-02-21T09:19:10Z</time>
            </trkpt>
            <trkpt lon="99.656024" lat="13.171379">
                <ele>131.360000</ele>
                <time>2015-02-21T09:19:39Z</time>
            </trkpt>
            <trkpt lon="99.655926" lat="13.172119">
                <ele>127.990000</ele>
                <time>2015-02-21T09:19:50Z</time>
            </trkpt>
            <trkpt lon="99.656024" lat="13.173615">
                <ele>118.860000</ele>
                <time>2015-02-21T09:20:12Z</time>
            </trkpt>
            <trkpt lon="99.656006" lat="13.173802">
                <ele>116.940000</ele>
                <time>2015-02-21T09:20:19Z</time>
            </trkpt>
            <trkpt lon="99.656018" lat="13.173444">
                <ele>129.430000</ele>
                <time>2015-02-21T09:20:48Z</time>
            </trkpt>
            <trkpt lon="99.656025" lat="13.173042">
                <ele>130.400000</ele>
                <time>2015-02-21T09:20:59Z</time>
            </trkpt>
            <trkpt lon="99.655954" lat="13.171903">
                <ele>144.820000</ele>
                <time>2015-02-21T09:21:35Z</time>
            </trkpt>
            <trkpt lon="99.656015" lat="13.171320">
                <ele>140.970000</ele>
                <time>2015-02-21T09:21:52Z</time>
            </trkpt>
            <trkpt lon="99.656085" lat="13.171185">
                <ele>138.570000</ele>
                <time>2015-02-21T09:22:00Z</time>
            </trkpt>
            <trkpt lon="99.656892" lat="13.170330">
                <ele>138.570000</ele>
                <time>2015-02-21T09:23:01Z</time>
            </trkpt>
            <trkpt lon="99.658055" lat="13.169757">
                <ele>142.410000</ele>
                <time>2015-02-21T09:23:54Z</time>
            </trkpt>
            <trkpt lon="99.658981" lat="13.169003">
                <ele>147.700000</ele>
                <time>2015-02-21T09:24:28Z</time>
            </trkpt>
            <trkpt lon="99.659424" lat="13.168712">
                <ele>145.780000</ele>
                <time>2015-02-21T09:24:38Z</time>
            </trkpt>
            <trkpt lon="99.660097" lat="13.168799">
                <ele>140.970000</ele>
                <time>2015-02-21T09:24:54Z</time>
            </trkpt>
            <trkpt lon="99.660546" lat="13.169038">
                <ele>143.370000</ele>
                <time>2015-02-21T09:25:06Z</time>
            </trkpt>
            <trkpt lon="99.660884" lat="13.169010">
                <ele>144.820000</ele>
                <time>2015-02-21T09:25:14Z</time>
            </trkpt>
            <trkpt lon="99.661034" lat="13.168859">
                <ele>145.780000</ele>
                <time>2015-02-21T09:25:21Z</time>
            </trkpt>
            <trkpt lon="99.661149" lat="13.168678">
                <ele>144.820000</ele>
                <time>2015-02-21T09:25:29Z</time>
            </trkpt>
            <trkpt lon="99.661807" lat="13.168588">
                <ele>144.820000</ele>
                <time>2015-02-21T09:25:42Z</time>
            </trkpt>
            <trkpt lon="99.662507" lat="13.168604">
                <ele>140.010000</ele>
                <time>2015-02-21T09:25:58Z</time>
            </trkpt>
            <trkpt lon="99.663202" lat="13.168179">
                <ele>131.840000</ele>
                <time>2015-02-21T09:26:17Z</time>
            </trkpt>
            <trkpt lon="99.663440" lat="13.167961">
                <ele>130.400000</ele>
                <time>2015-02-21T09:26:24Z</time>
            </trkpt>
            <trkpt lon="99.663524" lat="13.167645">
                <ele>129.920000</ele>
                <time>2015-02-21T09:26:31Z</time>
            </trkpt>
            <trkpt lon="99.663978" lat="13.167172">
                <ele>127.990000</ele>
                <time>2015-02-21T09:26:45Z</time>
            </trkpt>
            <trkpt lon="99.664293" lat="13.166902">
                <ele>124.630000</ele>
                <time>2015-02-21T09:26:52Z</time>
            </trkpt>
            <trkpt lon="99.664458" lat="13.166401">
                <ele>122.220000</ele>
                <time>2015-02-21T09:27:02Z</time>
            </trkpt>
            <trkpt lon="99.665035" lat="13.165146">
                <ele>115.980000</ele>
                <time>2015-02-21T09:27:26Z</time>
            </trkpt>
            <trkpt lon="99.666719" lat="13.164878">
                <ele>110.210000</ele>
                <time>2015-02-21T09:27:57Z</time>
            </trkpt>
            <trkpt lon="99.666905" lat="13.164943">
                <ele>109.250000</ele>
                <time>2015-02-21T09:28:01Z</time>
            </trkpt>
            <trkpt lon="99.667063" lat="13.165206">
                <ele>108.770000</ele>
                <time>2015-02-21T09:28:07Z</time>
            </trkpt>
            <trkpt lon="99.667517" lat="13.165842">
                <ele>106.360000</ele>
                <time>2015-02-21T09:28:22Z</time>
            </trkpt>
            <trkpt lon="99.667424" lat="13.167252">
                <ele>108.770000</ele>
                <time>2015-02-21T09:28:57Z</time>
            </trkpt>
            <trkpt lon="99.668713" lat="13.167347">
                <ele>103.960000</ele>
                <time>2015-02-21T09:29:23Z</time>
            </trkpt>
            <trkpt lon="99.669649" lat="13.167242">
                <ele>103.480000</ele>
                <time>2015-02-21T09:29:40Z</time>
            </trkpt>
            <trkpt lon="99.670295" lat="13.167173">
                <ele>100.600000</ele>
                <time>2015-02-21T09:29:51Z</time>
            </trkpt>
            <trkpt lon="99.670801" lat="13.167391">
                <ele>103.480000</ele>
                <time>2015-02-21T09:30:07Z</time>
            </trkpt>
            <trkpt lon="99.671346" lat="13.168131">
                <ele>111.170000</ele>
                <time>2015-02-21T09:31:46Z</time>
            </trkpt>
            <trkpt lon="99.671427" lat="13.168577">
                <ele>122.710000</ele>
                <time>2015-02-21T09:32:17Z</time>
            </trkpt>
            <trkpt lon="99.671631" lat="13.168887">
                <ele>127.510000</ele>
                <time>2015-02-21T09:32:42Z</time>
            </trkpt>
            <trkpt lon="99.672210" lat="13.168973">
                <ele>126.070000</ele>
                <time>2015-02-21T09:33:08Z</time>
            </trkpt>
            <trkpt lon="99.672637" lat="13.169200">
                <ele>123.670000</ele>
                <time>2015-02-21T09:33:23Z</time>
            </trkpt>
            <trkpt lon="99.673180" lat="13.169530">
                <ele>121.740000</ele>
                <time>2015-02-21T09:33:55Z</time>
            </trkpt>
            <trkpt lon="99.672787" lat="13.170294">
                <ele>117.900000</ele>
                <time>2015-02-21T09:34:20Z</time>
            </trkpt>
            <trkpt lon="99.672644" lat="13.171084">
                <ele>111.650000</ele>
                <time>2015-02-21T09:34:36Z</time>
            </trkpt>
            <trkpt lon="99.672887" lat="13.171373">
                <ele>113.090000</ele>
                <time>2015-02-21T09:34:52Z</time>
            </trkpt>
            <trkpt lon="99.673075" lat="13.171723">
                <ele>111.170000</ele>
                <time>2015-02-21T09:35:01Z</time>
            </trkpt>
            <trkpt lon="99.673431" lat="13.171817">
                <ele>110.210000</ele>
                <time>2015-02-21T09:35:08Z</time>
            </trkpt>
            <trkpt lon="99.674200" lat="13.171744">
                <ele>106.840000</ele>
                <time>2015-02-21T09:35:23Z</time>
            </trkpt>
            <trkpt lon="99.674645" lat="13.171825">
                <ele>103.000000</ele>
                <time>2015-02-21T09:35:30Z</time>
            </trkpt>
            <trkpt lon="99.675322" lat="13.172029">
                <ele>95.790000</ele>
                <time>2015-02-21T09:35:42Z</time>
            </trkpt>
            <trkpt lon="99.676442" lat="13.172894">
                <ele>92.900000</ele>
                <time>2015-02-21T09:36:22Z</time>
            </trkpt>
            <trkpt lon="99.676653" lat="13.173265">
                <ele>93.390000</ele>
                <time>2015-02-21T09:37:49Z</time>
            </trkpt>
            <trkpt lon="99.676429" lat="13.172875">
                <ele>99.150000</ele>
                <time>2015-02-21T09:38:11Z</time>
            </trkpt>
            <trkpt lon="99.675847" lat="13.172508">
                <ele>95.310000</ele>
                <time>2015-02-21T09:38:29Z</time>
            </trkpt>
            <trkpt lon="99.675860" lat="13.172251">
                <ele>94.830000</ele>
                <time>2015-02-21T09:38:39Z</time>
            </trkpt>
            <trkpt lon="99.675880" lat="13.171490">
                <ele>91.940000</ele>
                <time>2015-02-21T09:39:09Z</time>
            </trkpt>
            <trkpt lon="99.675942" lat="13.171273">
                <ele>90.980000</ele>
                <time>2015-02-21T09:39:15Z</time>
            </trkpt>
            <trkpt lon="99.676438" lat="13.171137">
                <ele>84.730000</ele>
                <time>2015-02-21T09:39:37Z</time>
            </trkpt>
            <trkpt lon="99.676682" lat="13.170847">
                <ele>86.180000</ele>
                <time>2015-02-21T09:39:54Z</time>
            </trkpt>
            <trkpt lon="99.676887" lat="13.170675">
                <ele>87.620000</ele>
                <time>2015-02-21T09:40:10Z</time>
            </trkpt>
            <trkpt lon="99.677793" lat="13.171241">
                <ele>92.420000</ele>
                <time>2015-02-21T09:40:54Z</time>
            </trkpt>
            <trkpt lon="99.678002" lat="13.171608">
                <ele>91.460000</ele>
                <time>2015-02-21T09:41:06Z</time>
            </trkpt>
            <trkpt lon="99.677913" lat="13.171950">
                <ele>90.980000</ele>
                <time>2015-02-21T09:41:14Z</time>
            </trkpt>
            <trkpt lon="99.677715" lat="13.172545">
                <ele>89.060000</ele>
                <time>2015-02-21T09:41:26Z</time>
            </trkpt>
            <trkpt lon="99.677515" lat="13.172907">
                <ele>89.540000</ele>
                <time>2015-02-21T09:41:35Z</time>
            </trkpt>
            <trkpt lon="99.677078" lat="13.173258">
                <ele>90.980000</ele>
                <time>2015-02-21T09:41:50Z</time>
            </trkpt>
            <trkpt lon="99.676814" lat="13.173285">
                <ele>91.940000</ele>
                <time>2015-02-21T09:41:58Z</time>
            </trkpt>
            <trkpt lon="99.676644" lat="13.173331">
                <ele>91.940000</ele>
                <time>2015-02-21T09:42:04Z</time>
            </trkpt>
            <trkpt lon="99.677054" lat="13.173741">
                <ele>91.460000</ele>
                <time>2015-02-21T09:42:24Z</time>
            </trkpt>
            <trkpt lon="99.677756" lat="13.177320">
                <ele>89.060000</ele>
                <time>2015-02-21T09:43:39Z</time>
            </trkpt>
            <trkpt lon="99.677731" lat="13.177394">
                <ele>89.540000</ele>
                <time>2015-02-21T09:43:41Z</time>
            </trkpt>
            <trkpt lon="99.677818" lat="13.178067">
                <ele>89.540000</ele>
                <time>2015-02-21T09:43:56Z</time>
            </trkpt>
            <trkpt lon="99.678016" lat="13.178891">
                <ele>88.100000</ele>
                <time>2015-02-21T09:44:15Z</time>
            </trkpt>
            <trkpt lon="99.678013" lat="13.178926">
                <ele>88.100000</ele>
                <time>2015-02-21T09:44:17Z</time>
            </trkpt>
            <trkpt lon="99.678049" lat="13.179020">
                <ele>85.690000</ele>
                <time>2015-02-21T09:44:36Z</time>
            </trkpt>
            <trkpt lon="99.678190" lat="13.179352">
                <ele>90.980000</ele>
                <time>2015-02-21T09:45:52Z</time>
            </trkpt>
            <trkpt lon="99.677812" lat="13.180310">
                <ele>93.390000</ele>
                <time>2015-02-21T09:46:27Z</time>
            </trkpt>
            <trkpt lon="99.677919" lat="13.181187">
                <ele>91.460000</ele>
                <time>2015-02-21T09:46:48Z</time>
            </trkpt>
            <trkpt lon="99.678335" lat="13.182657">
                <ele>99.150000</ele>
                <time>2015-02-21T09:47:40Z</time>
            </trkpt>
            <trkpt lon="99.678453" lat="13.183384">
                <ele>104.920000</ele>
                <time>2015-02-21T09:48:10Z</time>
            </trkpt>
            <trkpt lon="99.678507" lat="13.183706">
                <ele>106.840000</ele>
                <time>2015-02-21T09:48:24Z</time>
            </trkpt>
            <trkpt lon="99.678588" lat="13.184023">
                <ele>108.290000</ele>
                <time>2015-02-21T09:48:38Z</time>
            </trkpt>
            <trkpt lon="99.678911" lat="13.184692">
                <ele>113.570000</ele>
                <time>2015-02-21T09:49:07Z</time>
            </trkpt>
            <trkpt lon="99.679171" lat="13.185045">
                <ele>115.010000</ele>
                <time>2015-02-21T09:49:25Z</time>
            </trkpt>
            <trkpt lon="99.679300" lat="13.184943">
                <ele>115.980000</ele>
                <time>2015-02-21T09:49:34Z</time>
            </trkpt>
            <trkpt lon="99.679150" lat="13.184621">
                <ele>119.340000</ele>
                <time>2015-02-21T09:49:53Z</time>
            </trkpt>
            <trkpt lon="99.679117" lat="13.184574">
                <ele>120.780000</ele>
                <time>2015-02-21T09:50:39Z</time>
            </trkpt>
        </trkseg>
    </trk>
</gpx>